sensor_id;sensor_type;location;lat;lon;timestamp;pressure;altitude;pressure_sealevel;temperature;humidity
50380;BME280;37474;59.468;18.040;2023-05-29T00:02:21;101688.22;;;8.15;90.82
50380;BME280;37474;59.468;18.040;2023-05-29T00:04:49;101697.69;;;8.16;92.17
50380;BME280;37474;59.468;18.040;2023-05-29T00:07:17;101699.78;;;8.02;93.65
50380;BME280;37474;59.468;18.040;2023-05-29T00:09:47;101707.09;;;7.85;94.37
50380;BME280;37474;59.468;18.040;2023-05-29T00:12:15;101709.00;;;7.77;95.63
50380;BME280;37474;59.468;18.040;2023-05-29T00:14:43;101715.91;;;7.76;96.51
50380;BME280;37474;59.468;18.040;2023-05-29T00:17:11;101721.94;;;7.75;97.00
50380;BME280;37474;59.468;18.040;2023-05-29T00:19:42;101721.59;;;7.90;95.59
50380;BME280;37474;59.468;18.040;2023-05-29T00:22:10;101721.72;;;7.84;95.52
50380;BME280;37474;59.468;18.040;2023-05-29T00:24:39;101713.09;;;7.85;95.30
50380;BME280;37474;59.468;18.040;2023-05-29T00:27:08;101722.91;;;7.71;98.10
50380;BME280;37474;59.468;18.040;2023-05-29T00:29:37;101733.66;;;7.90;96.77
50380;BME280;37474;59.468;18.040;2023-05-29T00:32:05;101737.41;;;8.12;94.70
50380;BME280;37474;59.468;18.040;2023-05-29T00:34:34;101733.72;;;7.87;96.23
50380;BME280;37474;59.468;18.040;2023-05-29T00:37:02;101742.56;;;7.77;97.27
50380;BME280;37474;59.468;18.040;2023-05-29T00:39:30;101734.22;;;8.01;96.66
50380;BME280;37474;59.468;18.040;2023-05-29T00:41:58;101736.63;;;8.09;96.06
50380;BME280;37474;59.468;18.040;2023-05-29T00:44:28;101741.94;;;8.03;96.33
50380;BME280;37474;59.468;18.040;2023-05-29T00:46:56;101738.28;;;8.11;96.25
50380;BME280;37474;59.468;18.040;2023-05-29T00:49:25;101745.69;;;8.25;95.60
50380;BME280;37474;59.468;18.040;2023-05-29T00:51:54;101750.00;;;8.25;96.25
50380;BME280;37474;59.468;18.040;2023-05-29T00:54:26;101769.53;;;8.35;94.04
50380;BME280;37474;59.468;18.040;2023-05-29T00:56:56;101768.84;;;8.62;90.72
50380;BME280;37474;59.468;18.040;2023-05-29T00:59:26;101748.78;;;8.39;90.99
50380;BME280;37474;59.468;18.040;2023-05-29T01:01:55;101782.81;;;8.88;86.24
50380;BME280;37474;59.468;18.040;2023-05-29T01:04:26;101781.84;;;8.92;85.25
50380;BME280;37474;59.468;18.040;2023-05-29T01:06:54;101787.84;;;8.94;83.48
50380;BME280;37474;59.468;18.040;2023-05-29T01:09:24;101795.59;;;8.92;81.67
50380;BME280;37474;59.468;18.040;2023-05-29T01:11:59;101800.75;;;8.94;81.13
50380;BME280;37474;59.468;18.040;2023-05-29T01:14:36;101811.09;;;8.94;81.23
50380;BME280;37474;59.468;18.040;2023-05-29T01:17:17;101792.75;;;8.70;81.18
50380;BME280;37474;59.468;18.040;2023-05-29T01:20:04;101812.13;;;8.87;78.93
50380;BME280;37474;59.468;18.040;2023-05-29T01:22:51;101813.03;;;8.86;78.56
50380;BME280;37474;59.468;18.040;2023-05-29T01:25:26;101808.09;;;8.77;78.17
50380;BME280;37474;59.468;18.040;2023-05-29T01:28:00;101809.97;;;8.71;77.71
50380;BME280;37474;59.468;18.040;2023-05-29T01:30:30;101811.13;;;8.60;75.97
50380;BME280;37474;59.468;18.040;2023-05-29T01:33:00;101819.03;;;8.54;76.85
50380;BME280;37474;59.468;18.040;2023-05-29T01:35:29;101826.44;;;8.33;77.87
50380;BME280;37474;59.468;18.040;2023-05-29T01:37:57;101829.34;;;8.19;78.24
50380;BME280;37474;59.468;18.040;2023-05-29T01:40:26;101822.38;;;8.23;77.79
50380;BME280;37474;59.468;18.040;2023-05-29T01:42:54;101824.47;;;8.07;78.99
50380;BME280;37474;59.468;18.040;2023-05-29T01:45:24;101829.44;;;8.16;78.02
50380;BME280;37474;59.468;18.040;2023-05-29T01:47:53;101836.50;;;8.08;78.78
50380;BME280;37474;59.468;18.040;2023-05-29T01:50:21;101835.00;;;8.00;79.25
50380;BME280;37474;59.468;18.040;2023-05-29T01:52:51;101850.88;;;7.83;80.04
50380;BME280;37474;59.468;18.040;2023-05-29T01:55:19;101846.50;;;7.85;79.55
50380;BME280;37474;59.468;18.040;2023-05-29T01:57:48;101851.94;;;7.71;80.25
50380;BME280;37474;59.468;18.040;2023-05-29T02:00:17;101853.09;;;7.58;81.12
50380;BME280;37474;59.468;18.040;2023-05-29T02:02:47;101851.34;;;7.60;80.04
50380;BME280;37474;59.468;18.040;2023-05-29T02:05:16;101856.34;;;7.67;79.98
50380;BME280;37474;59.468;18.040;2023-05-29T02:07:45;101860.81;;;7.59;79.04
50380;BME280;37474;59.468;18.040;2023-05-29T02:10:13;101867.94;;;7.48;78.96
50380;BME280;37474;59.468;18.040;2023-05-29T02:12:41;101864.56;;;7.45;78.28
50380;BME280;37474;59.468;18.040;2023-05-29T02:15:10;101813.00;;;7.01;79.09
50380;BME280;37474;59.468;18.040;2023-05-29T02:17:38;101866.78;;;7.20;79.18
50380;BME280;37474;59.468;18.040;2023-05-29T02:20:10;101846.28;;;7.13;78.72
50380;BME280;37474;59.468;18.040;2023-05-29T02:22:38;101885.22;;;7.45;78.15
50380;BME280;37474;59.468;18.040;2023-05-29T02:25:07;101884.41;;;7.41;77.43
50380;BME280;37474;59.468;18.040;2023-05-29T02:27:35;101892.31;;;7.32;79.00
50380;BME280;37474;59.468;18.040;2023-05-29T02:30:04;101894.78;;;7.38;78.31
50380;BME280;37474;59.468;18.040;2023-05-29T02:32:32;101894.78;;;7.38;77.83
50380;BME280;37474;59.468;18.040;2023-05-29T02:35:01;101886.06;;;7.45;77.20
50380;BME280;37474;59.468;18.040;2023-05-29T02:37:31;101895.78;;;7.31;78.50
50380;BME280;37474;59.468;18.040;2023-05-29T02:39:59;101880.41;;;7.26;78.49
50380;BME280;37474;59.468;18.040;2023-05-29T02:42:27;101896.75;;;7.25;78.62
50380;BME280;37474;59.468;18.040;2023-05-29T02:44:55;101908.84;;;7.22;79.71
50380;BME280;37474;59.468;18.040;2023-05-29T02:47:23;101898.56;;;7.20;79.40
50380;BME280;37474;59.468;18.040;2023-05-29T02:49:51;101899.22;;;7.31;78.42
50380;BME280;37474;59.468;18.040;2023-05-29T02:52:19;101910.63;;;7.20;78.35
50380;BME280;37474;59.468;18.040;2023-05-29T02:54:51;101905.19;;;7.35;77.59
50380;BME280;37474;59.468;18.040;2023-05-29T02:57:21;101909.38;;;7.40;77.55
50380;BME280;37474;59.468;18.040;2023-05-29T02:59:49;101905.75;;;7.49;76.90
50380;BME280;37474;59.468;18.040;2023-05-29T03:02:18;101911.94;;;7.40;78.90
50380;BME280;37474;59.468;18.040;2023-05-29T03:04:46;101916.19;;;7.43;78.86
50380;BME280;37474;59.468;18.040;2023-05-29T03:07:16;101911.03;;;7.43;78.95
50380;BME280;37474;59.468;18.040;2023-05-29T03:09:45;101915.91;;;7.58;78.78
50380;BME280;37474;59.468;18.040;2023-05-29T03:12:14;101917.59;;;7.59;78.81
50380;BME280;37474;59.468;18.040;2023-05-29T03:14:43;101908.88;;;7.65;79.36
50380;BME280;37474;59.468;18.040;2023-05-29T03:17:11;101911.53;;;7.62;79.94
50380;BME280;37474;59.468;18.040;2023-05-29T03:19:40;101906.28;;;7.65;80.45
50380;BME280;37474;59.468;18.040;2023-05-29T03:22:08;101904.31;;;7.78;79.42
50380;BME280;37474;59.468;18.040;2023-05-29T03:24:36;101902.88;;;7.64;80.20
50380;BME280;37474;59.468;18.040;2023-05-29T03:27:04;101899.38;;;7.67;79.35
50380;BME280;37474;59.468;18.040;2023-05-29T03:29:34;101894.22;;;7.65;79.32
50380;BME280;37474;59.468;18.040;2023-05-29T03:32:02;101911.38;;;7.70;80.04
50380;BME280;37474;59.468;18.040;2023-05-29T03:34:30;101914.69;;;7.75;78.68
50380;BME280;37474;59.468;18.040;2023-05-29T03:36:58;101924.00;;;7.83;79.30
50380;BME280;37474;59.468;18.040;2023-05-29T03:39:27;101937.84;;;7.79;78.38
50380;BME280;37474;59.468;18.040;2023-05-29T03:41:55;101935.19;;;7.82;77.17
50380;BME280;37474;59.468;18.040;2023-05-29T03:44:24;101944.47;;;7.91;75.51
50380;BME280;37474;59.468;18.040;2023-05-29T03:46:54;101948.00;;;7.87;74.50
50380;BME280;37474;59.468;18.040;2023-05-29T03:49:22;101947.75;;;7.99;74.80
50380;BME280;37474;59.468;18.040;2023-05-29T03:51:50;101946.72;;;8.08;74.50
50380;BME280;37474;59.468;18.040;2023-05-29T03:54:18;101950.03;;;8.13;75.36
50380;BME280;37474;59.468;18.040;2023-05-29T03:56:46;101948.75;;;7.92;75.34
50380;BME280;37474;59.468;18.040;2023-05-29T03:59:15;101950.00;;;8.14;73.65
50380;BME280;37474;59.468;18.040;2023-05-29T04:01:43;101944.09;;;8.09;74.84
50380;BME280;37474;59.468;18.040;2023-05-29T04:04:12;101947.94;;;8.30;73.74
50380;BME280;37474;59.468;18.040;2023-05-29T04:06:41;101950.38;;;8.38;72.36
50380;BME280;37474;59.468;18.040;2023-05-29T04:09:09;101956.63;;;8.26;72.77
50380;BME280;37474;59.468;18.040;2023-05-29T04:11:37;101957.50;;;8.25;71.82
50380;BME280;37474;59.468;18.040;2023-05-29T04:14:08;101958.63;;;8.13;71.99
50380;BME280;37474;59.468;18.040;2023-05-29T04:16:36;101959.91;;;8.34;70.20
50380;BME280;37474;59.468;18.040;2023-05-29T04:19:04;101967.81;;;8.67;70.70
50380;BME280;37474;59.468;18.040;2023-05-29T04:21:34;101970.97;;;8.41;68.44
50380;BME280;37474;59.468;18.040;2023-05-29T04:24:02;101964.47;;;8.21;68.51
50380;BME280;37474;59.468;18.040;2023-05-29T04:26:30;101972.56;;;8.46;68.09
50380;BME280;37474;59.468;18.040;2023-05-29T04:28:59;101946.38;;;8.21;67.64
50380;BME280;37474;59.468;18.040;2023-05-29T04:31:27;101967.94;;;8.22;68.89
50380;BME280;37474;59.468;18.040;2023-05-29T04:33:58;101971.88;;;8.40;67.83
50380;BME280;37474;59.468;18.040;2023-05-29T04:36:28;101953.81;;;8.38;67.66
50380;BME280;37474;59.468;18.040;2023-05-29T04:39:00;101976.94;;;8.80;66.96
50380;BME280;37474;59.468;18.040;2023-05-29T04:41:29;101984.00;;;9.09;66.93
50380;BME280;37474;59.468;18.040;2023-05-29T04:43:58;101983.56;;;9.26;64.96
50380;BME280;37474;59.468;18.040;2023-05-29T04:46:26;101979.34;;;8.88;65.49
50380;BME280;37474;59.468;18.040;2023-05-29T04:48:55;101985.66;;;8.76;66.87
50380;BME280;37474;59.468;18.040;2023-05-29T04:51:23;101983.50;;;8.95;65.61
50380;BME280;37474;59.468;18.040;2023-05-29T04:53:51;101979.38;;;9.20;65.57
50380;BME280;37474;59.468;18.040;2023-05-29T04:56:21;101976.44;;;9.02;66.55
50380;BME280;37474;59.468;18.040;2023-05-29T04:58:49;101941.50;;;8.85;66.85
50380;BME280;37474;59.468;18.040;2023-05-29T05:01:17;101972.69;;;9.13;67.30
50380;BME280;37474;59.468;18.040;2023-05-29T05:03:46;101971.72;;;9.17;68.64
50380;BME280;37474;59.468;18.040;2023-05-29T05:06:14;101972.09;;;9.02;67.03
50380;BME280;37474;59.468;18.040;2023-05-29T05:08:43;101969.78;;;8.91;64.91
50380;BME280;37474;59.468;18.040;2023-05-29T05:11:12;101970.84;;;8.83;65.07
50380;BME280;37474;59.468;18.040;2023-05-29T05:13:43;101944.69;;;8.95;63.11
50380;BME280;37474;59.468;18.040;2023-05-29T05:16:11;101961.38;;;9.17;63.99
50380;BME280;37474;59.468;18.040;2023-05-29T05:18:40;101959.50;;;9.22;65.34
50380;BME280;37474;59.468;18.040;2023-05-29T05:21:08;101953.22;;;9.64;62.08
50380;BME280;37474;59.468;18.040;2023-05-29T05:23:37;101951.78;;;10.42;57.31
50380;BME280;37474;59.468;18.040;2023-05-29T05:26:23;101950.44;;;10.57;55.80
50380;BME280;37474;59.468;18.040;2023-05-29T05:28:54;101944.00;;;10.69;55.27
50380;BME280;37474;59.468;18.040;2023-05-29T05:31:23;101950.75;;;10.74;55.73
50380;BME280;37474;59.468;18.040;2023-05-29T05:33:51;101958.16;;;11.36;54.45
50380;BME280;37474;59.468;18.040;2023-05-29T05:36:19;101941.25;;;11.00;53.84
50380;BME280;37474;59.468;18.040;2023-05-29T05:38:48;101954.59;;;10.89;54.87
50380;BME280;37474;59.468;18.040;2023-05-29T05:41:16;101962.97;;;10.43;57.32
50380;BME280;37474;59.468;18.040;2023-05-29T05:43:47;101958.97;;;10.87;54.71
50380;BME280;37474;59.468;18.040;2023-05-29T05:46:16;101950.53;;;10.80;55.15
50380;BME280;37474;59.468;18.040;2023-05-29T05:48:45;101954.06;;;11.04;54.00
50380;BME280;37474;59.468;18.040;2023-05-29T05:51:13;101960.22;;;11.27;54.33
50380;BME280;37474;59.468;18.040;2023-05-29T05:53:42;101968.75;;;11.05;51.90
50380;BME280;37474;59.468;18.040;2023-05-29T05:56:10;101957.13;;;10.64;53.75
50380;BME280;37474;59.468;18.040;2023-05-29T05:58:38;101962.88;;;10.74;52.74
50380;BME280;37474;59.468;18.040;2023-05-29T06:01:06;101959.31;;;10.50;53.39
50380;BME280;37474;59.468;18.040;2023-05-29T06:03:36;101960.66;;;10.88;52.34
50380;BME280;37474;59.468;18.040;2023-05-29T06:06:05;101959.66;;;10.66;51.06
50380;BME280;37474;59.468;18.040;2023-05-29T06:08:34;101963.81;;;10.71;50.97
50380;BME280;37474;59.468;18.040;2023-05-29T06:11:02;101965.00;;;10.88;52.57
50380;BME280;37474;59.468;18.040;2023-05-29T06:13:30;101963.47;;;11.33;52.24
50380;BME280;37474;59.468;18.040;2023-05-29T06:15:58;101961.13;;;11.51;51.70
50380;BME280;37474;59.468;18.040;2023-05-29T06:18:27;101935.16;;;11.51;51.63
50380;BME280;37474;59.468;18.040;2023-05-29T06:20:57;101970.88;;;11.19;50.87
50380;BME280;37474;59.468;18.040;2023-05-29T06:23:25;101966.78;;;10.61;50.69
50380;BME280;37474;59.468;18.040;2023-05-29T06:25:53;101972.63;;;10.39;52.52
50380;BME280;37474;59.468;18.040;2023-05-29T06:28:21;101968.69;;;10.26;52.54
50380;BME280;37474;59.468;18.040;2023-05-29T06:30:49;101964.81;;;10.10;54.14
50380;BME280;37474;59.468;18.040;2023-05-29T06:33:17;101962.84;;;10.47;52.01
50380;BME280;37474;59.468;18.040;2023-05-29T06:35:47;101972.38;;;10.47;52.40
50380;BME280;37474;59.468;18.040;2023-05-29T06:38:16;101975.63;;;10.53;53.15
50380;BME280;37474;59.468;18.040;2023-05-29T06:40:45;101973.03;;;10.25;50.89
50380;BME280;37474;59.468;18.040;2023-05-29T06:43:13;101968.16;;;10.71;50.52
50380;BME280;37474;59.468;18.040;2023-05-29T06:45:41;101969.97;;;10.94;48.95
50380;BME280;37474;59.468;18.040;2023-05-29T06:48:09;101968.78;;;11.54;48.31
50380;BME280;37474;59.468;18.040;2023-05-29T06:50:38;101974.41;;;11.42;48.69
50380;BME280;37474;59.468;18.040;2023-05-29T06:53:06;101970.66;;;11.74;47.03
50380;BME280;37474;59.468;18.040;2023-05-29T06:55:35;101974.84;;;11.29;48.92
50380;BME280;37474;59.468;18.040;2023-05-29T06:58:03;101974.16;;;10.99;46.77
50380;BME280;37474;59.468;18.040;2023-05-29T07:00:31;101977.03;;;10.90;48.53
50380;BME280;37474;59.468;18.040;2023-05-29T07:02:59;101972.03;;;11.35;47.56
50380;BME280;37474;59.468;18.040;2023-05-29T07:05:28;101976.84;;;11.21;48.00
50380;BME280;37474;59.468;18.040;2023-05-29T07:07:56;101985.25;;;11.03;47.29
50380;BME280;37474;59.468;18.040;2023-05-29T07:10:24;101977.47;;;11.78;48.05
50380;BME280;37474;59.468;18.040;2023-05-29T07:12:53;101987.66;;;11.09;48.39
50380;BME280;37474;59.468;18.040;2023-05-29T07:15:21;101979.03;;;10.82;47.33
50380;BME280;37474;59.468;18.040;2023-05-29T07:17:50;101980.31;;;11.22;48.12
50380;BME280;37474;59.468;18.040;2023-05-29T07:20:18;101970.31;;;11.59;48.06
50380;BME280;37474;59.468;18.040;2023-05-29T07:22:47;101980.06;;;11.53;46.37
50380;BME280;37474;59.468;18.040;2023-05-29T07:25:15;101966.41;;;11.71;44.92
50380;BME280;37474;59.468;18.040;2023-05-29T07:27:43;101972.78;;;12.11;44.08
50380;BME280;37474;59.468;18.040;2023-05-29T07:30:13;101973.06;;;12.03;43.47
50380;BME280;37474;59.468;18.040;2023-05-29T07:32:41;101973.66;;;12.33;46.16
50380;BME280;37474;59.468;18.040;2023-05-29T07:35:09;101925.88;;;12.14;42.84
50380;BME280;37474;59.468;18.040;2023-05-29T07:37:37;101969.66;;;13.31;43.70
50380;BME280;37474;59.468;18.040;2023-05-29T07:40:06;101970.06;;;13.22;41.80
50380;BME280;37474;59.468;18.040;2023-05-29T07:42:35;101978.53;;;12.63;42.78
50380;BME280;37474;59.468;18.040;2023-05-29T07:45:04;101974.03;;;13.09;42.44
50380;BME280;37474;59.468;18.040;2023-05-29T07:47:34;101971.31;;;12.27;42.11
50380;BME280;37474;59.468;18.040;2023-05-29T07:50:05;101970.78;;;12.83;42.64
50380;BME280;37474;59.468;18.040;2023-05-29T07:52:34;101969.50;;;13.14;41.26
50380;BME280;37474;59.468;18.040;2023-05-29T07:55:02;101980.56;;;12.56;41.10
50380;BME280;37474;59.468;18.040;2023-05-29T07:57:30;101980.63;;;13.17;41.57
50380;BME280;37474;59.468;18.040;2023-05-29T07:59:58;101972.94;;;13.94;41.44
50380;BME280;37474;59.468;18.040;2023-05-29T08:02:28;101976.16;;;13.81;40.47
50380;BME280;37474;59.468;18.040;2023-05-29T08:04:58;101967.59;;;13.58;40.45
50380;BME280;37474;59.468;18.040;2023-05-29T08:07:26;101973.00;;;14.12;40.43
50380;BME280;37474;59.468;18.040;2023-05-29T08:09:55;101977.16;;;14.16;39.84
50380;BME280;37474;59.468;18.040;2023-05-29T08:12:23;101969.47;;;14.13;39.99
50380;BME280;37474;59.468;18.040;2023-05-29T08:14:51;101965.38;;;13.69;41.42
50380;BME280;37474;59.468;18.040;2023-05-29T08:17:19;101969.22;;;13.22;41.00
50380;BME280;37474;59.468;18.040;2023-05-29T08:19:47;101967.88;;;13.71;40.34
50380;BME280;37474;59.468;18.040;2023-05-29T08:22:19;101958.97;;;14.33;40.24
50380;BME280;37474;59.468;18.040;2023-05-29T08:24:49;101958.16;;;14.31;37.98
50380;BME280;37474;59.468;18.040;2023-05-29T08:27:17;101954.44;;;14.56;38.44
50380;BME280;37474;59.468;18.040;2023-05-29T08:29:45;101958.88;;;14.71;38.63
50380;BME280;37474;59.468;18.040;2023-05-29T08:32:13;101949.91;;;14.76;37.50
50380;BME280;37474;59.468;18.040;2023-05-29T08:34:41;101947.13;;;14.97;37.39
50380;BME280;37474;59.468;18.040;2023-05-29T08:37:12;101946.06;;;14.84;37.28
50380;BME280;37474;59.468;18.040;2023-05-29T08:39:41;101949.22;;;14.90;38.50
50380;BME280;37474;59.468;18.040;2023-05-29T08:42:12;101945.88;;;15.54;36.51
50380;BME280;37474;59.468;18.040;2023-05-29T08:44:44;101955.72;;;14.82;38.05
50380;BME280;37474;59.468;18.040;2023-05-29T08:47:15;101951.31;;;14.47;38.33
50380;BME280;37474;59.468;18.040;2023-05-29T08:49:52;101946.56;;;15.25;38.29
50380;BME280;37474;59.468;18.040;2023-05-29T08:52:22;101950.00;;;14.39;39.63
50380;BME280;37474;59.468;18.040;2023-05-29T08:54:54;101943.09;;;14.19;39.14
50380;BME280;37474;59.468;18.040;2023-05-29T08:57:22;101932.06;;;13.37;38.95
50380;BME280;37474;59.468;18.040;2023-05-29T08:59:51;101932.84;;;13.78;39.53
50380;BME280;37474;59.468;18.040;2023-05-29T09:02:20;101940.03;;;14.11;39.88
50380;BME280;37474;59.468;18.040;2023-05-29T09:04:48;101947.03;;;14.27;40.48
50380;BME280;37474;59.468;18.040;2023-05-29T09:07:16;101944.09;;;13.97;39.62
50380;BME280;37474;59.468;18.040;2023-05-29T09:09:45;101935.94;;;13.86;38.46
50380;BME280;37474;59.468;18.040;2023-05-29T09:12:17;101938.28;;;14.47;38.53
50380;BME280;37474;59.468;18.040;2023-05-29T09:14:46;101928.94;;;14.95;38.19
50380;BME280;37474;59.468;18.040;2023-05-29T09:17:14;101919.19;;;14.82;40.54
50380;BME280;37474;59.468;18.040;2023-05-29T09:19:43;101914.88;;;14.98;38.60
50380;BME280;37474;59.468;18.040;2023-05-29T09:22:16;101924.47;;;15.15;37.05
50380;BME280;37474;59.468;18.040;2023-05-29T09:24:47;101927.09;;;14.63;37.74
50380;BME280;37474;59.468;18.040;2023-05-29T09:27:15;101883.44;;;14.30;38.91
50380;BME280;37474;59.468;18.040;2023-05-29T09:29:46;101907.75;;;15.35;38.21
50380;BME280;37474;59.468;18.040;2023-05-29T09:32:15;101920.56;;;15.06;38.11
50380;BME280;37474;59.468;18.040;2023-05-29T09:34:44;101905.00;;;15.53;39.59
50380;BME280;37474;59.468;18.040;2023-05-29T09:37:13;101899.75;;;15.38;38.64
50380;BME280;37474;59.468;18.040;2023-05-29T09:39:45;101901.84;;;15.80;38.10
50380;BME280;37474;59.468;18.040;2023-05-29T09:42:14;101903.38;;;16.00;37.55
50380;BME280;37474;59.468;18.040;2023-05-29T09:44:44;101906.75;;;16.02;39.22
50380;BME280;37474;59.468;18.040;2023-05-29T09:47:16;101898.84;;;16.49;36.53
50380;BME280;37474;59.468;18.040;2023-05-29T09:49:45;101899.00;;;16.16;35.94
50380;BME280;37474;59.468;18.040;2023-05-29T09:52:14;101897.38;;;15.82;36.04
50380;BME280;37474;59.468;18.040;2023-05-29T09:54:43;101902.75;;;14.97;37.75
50380;BME280;37474;59.468;18.040;2023-05-29T09:57:16;101895.91;;;15.45;38.56
50380;BME280;37474;59.468;18.040;2023-05-29T09:59:44;101904.53;;;14.62;37.60
50380;BME280;37474;59.468;18.040;2023-05-29T10:02:19;101893.25;;;15.29;40.94
50380;BME280;37474;59.468;18.040;2023-05-29T10:04:48;101885.72;;;16.03;39.37
50380;BME280;37474;59.468;18.040;2023-05-29T10:07:22;101895.81;;;15.13;38.18
50380;BME280;37474;59.468;18.040;2023-05-29T10:09:59;101891.06;;;15.37;40.23
50380;BME280;37474;59.468;18.040;2023-05-29T10:12:29;101860.34;;;16.05;37.39
50380;BME280;37474;59.468;18.040;2023-05-29T10:14:59;101880.59;;;16.48;34.65
50380;BME280;37474;59.468;18.040;2023-05-29T10:17:33;101880.16;;;16.09;35.82
50380;BME280;37474;59.468;18.040;2023-05-29T10:20:05;101881.03;;;15.78;35.82
50380;BME280;37474;59.468;18.040;2023-05-29T10:22:38;101895.31;;;14.89;36.79
50380;BME280;37474;59.468;18.040;2023-05-29T10:25:09;101889.50;;;14.67;38.10
50380;BME280;37474;59.468;18.040;2023-05-29T10:27:38;101876.63;;;15.63;39.08
50380;BME280;37474;59.468;18.040;2023-05-29T10:30:10;101878.41;;;15.94;35.13
50380;BME280;37474;59.468;18.040;2023-05-29T10:32:56;101876.16;;;15.88;36.47
50380;BME280;37474;59.468;18.040;2023-05-29T10:35:33;101873.59;;;15.71;37.26
50380;BME280;37474;59.468;18.040;2023-05-29T10:38:10;101872.00;;;15.68;38.57
50380;BME280;37474;59.468;18.040;2023-05-29T10:40:39;101854.50;;;15.53;36.52
50380;BME280;37474;59.468;18.040;2023-05-29T10:43:07;101872.50;;;16.06;36.58
50380;BME280;37474;59.468;18.040;2023-05-29T10:45:58;101874.13;;;15.77;38.38
50380;BME280;37474;59.468;18.040;2023-05-29T10:48:39;101878.34;;;14.81;38.48
50380;BME280;37474;59.468;18.040;2023-05-29T10:51:10;101875.91;;;15.44;39.52
50380;BME280;37474;59.468;18.040;2023-05-29T10:53:51;101882.72;;;14.80;38.00
50380;BME280;37474;59.468;18.040;2023-05-29T10:56:23;101877.38;;;15.32;36.86
50380;BME280;37474;59.468;18.040;2023-05-29T10:58:54;101868.47;;;15.36;38.63
50380;BME280;37474;59.468;18.040;2023-05-29T11:01:24;101879.75;;;16.01;36.67
50380;BME280;37474;59.468;18.040;2023-05-29T11:04:27;101867.59;;;15.20;38.12
50380;BME280;37474;59.468;18.040;2023-05-29T11:06:57;101871.50;;;14.95;38.31
50380;BME280;37474;59.468;18.040;2023-05-29T11:09:27;101867.91;;;14.81;38.35
50380;BME280;37474;59.468;18.040;2023-05-29T11:12:12;101876.63;;;14.45;37.47
50380;BME280;37474;59.468;18.040;2023-05-29T11:14:45;101870.88;;;14.38;38.44
50380;BME280;37474;59.468;18.040;2023-05-29T11:17:31;101876.97;;;14.73;38.54
50380;BME280;37474;59.468;18.040;2023-05-29T11:20:06;101870.00;;;15.40;37.52
50380;BME280;37474;59.468;18.040;2023-05-29T11:22:51;101864.31;;;15.32;38.80
50380;BME280;37474;59.468;18.040;2023-05-29T11:25:23;101853.94;;;15.64;37.30
50380;BME280;37474;59.468;18.040;2023-05-29T11:27:51;101857.06;;;15.70;37.54
50380;BME280;37474;59.468;18.040;2023-05-29T11:30:20;101824.13;;;15.19;38.74
50380;BME280;37474;59.468;18.040;2023-05-29T11:32:48;101852.44;;;14.93;38.39
50380;BME280;37474;59.468;18.040;2023-05-29T11:35:21;101855.66;;;15.16;37.98
50380;BME280;37474;59.468;18.040;2023-05-29T11:37:50;101817.66;;;15.42;39.36
50380;BME280;37474;59.468;18.040;2023-05-29T11:40:18;101849.38;;;15.51;39.26
50380;BME280;37474;59.468;18.040;2023-05-29T11:42:46;101863.66;;;15.28;37.36
50380;BME280;37474;59.468;18.040;2023-05-29T11:45:16;101859.56;;;15.07;37.93
50380;BME280;37474;59.468;18.040;2023-05-29T11:47:52;101840.97;;;15.78;37.32
50380;BME280;37474;59.468;18.040;2023-05-29T11:50:24;101844.69;;;14.92;38.80
50380;BME280;37474;59.468;18.040;2023-05-29T11:52:53;101852.56;;;14.74;39.47
50380;BME280;37474;59.468;18.040;2023-05-29T11:55:21;101840.41;;;15.24;37.96
50380;BME280;37474;59.468;18.040;2023-05-29T11:57:50;101842.69;;;14.97;37.98
50380;BME280;37474;59.468;18.040;2023-05-29T12:00:19;101841.13;;;14.77;38.25
50380;BME280;37474;59.468;18.040;2023-05-29T12:02:48;101841.59;;;14.68;38.55
50380;BME280;37474;59.468;18.040;2023-05-29T12:05:17;101827.47;;;15.21;39.75
50380;BME280;37474;59.468;18.040;2023-05-29T12:07:52;101819.50;;;15.24;38.89
50380;BME280;37474;59.468;18.040;2023-05-29T12:10:21;101770.88;;;14.72;37.63
50380;BME280;37474;59.468;18.040;2023-05-29T12:12:51;101757.66;;;15.40;39.00
50380;BME280;37474;59.468;18.040;2023-05-29T12:15:19;101810.56;;;15.59;37.96
50380;BME280;37474;59.468;18.040;2023-05-29T12:17:49;101807.44;;;15.37;37.99
50380;BME280;37474;59.468;18.040;2023-05-29T12:20:18;101798.53;;;15.57;38.14
50380;BME280;37474;59.468;18.040;2023-05-29T12:22:47;101799.59;;;16.00;39.20
50380;BME280;37474;59.468;18.040;2023-05-29T12:25:18;101793.25;;;16.49;37.49
50380;BME280;37474;59.468;18.040;2023-05-29T12:27:48;101792.94;;;16.25;37.16
50380;BME280;37474;59.468;18.040;2023-05-29T12:30:20;101788.97;;;15.88;37.17
50380;BME280;37474;59.468;18.040;2023-05-29T12:32:59;101773.22;;;16.19;37.05
50380;BME280;37474;59.468;18.040;2023-05-29T12:35:29;101777.38;;;16.07;38.39
50380;BME280;37474;59.468;18.040;2023-05-29T12:37:59;101774.09;;;16.48;35.98
50380;BME280;37474;59.468;18.040;2023-05-29T12:40:29;101764.78;;;16.14;36.55
50380;BME280;37474;59.468;18.040;2023-05-29T12:42:59;101774.38;;;15.99;38.04
50380;BME280;37474;59.468;18.040;2023-05-29T12:45:29;101772.19;;;15.60;38.34
50380;BME280;37474;59.468;18.040;2023-05-29T12:47:59;101770.53;;;15.75;37.46
50380;BME280;37474;59.468;18.040;2023-05-29T12:50:31;101769.94;;;15.54;38.47
50380;BME280;37474;59.468;18.040;2023-05-29T12:53:01;101760.91;;;14.96;38.37
50380;BME280;37474;59.468;18.040;2023-05-29T12:55:34;101762.94;;;15.23;39.42
50380;BME280;37474;59.468;18.040;2023-05-29T12:58:04;101710.59;;;15.40;40.95